首页
METAR-TAF:

METAR-TAF

机场 :

雅典, 喬治亞, 美国

纬度: 33-57-03N, 经度: 083-19-41W, 海拔: 246米

当前天气观测

该预报发布于9分钟前的01:51 UTC
风速9节,风向东转东北
温度 5°C
湿度 35%
气压 1032 hPa
能見度: 16.1公里
阴天层高于3100英尺

METAR: KAHN 230151Z AUTO 07009KT 10SM OVC031 05/M09 A3048 RMK AO2 SLP330 T00501089

时间: 21:00 (02:00 UTC)

预报

该预报发布于20分钟前的01:40 UTC
预报有效从23日的 02点(UTC)到 23日的 24点(UTC)
风速9节,风向
能見度: 10公里
阴天层高于3000英尺
从 23日的 0300点(UTC)
风速9节,风向东转东北
能見度: 10公里
散云层高于1500英尺
多云层高于2500英尺
从 23日的 0600点(UTC)
风速8节,风向东转东北
能見度: 10公里
阴天层高于800英尺
附近有阵雨
从 23日的 1000点(UTC)
风速8节,风向
能見度: 9.7公里
多云层高于400英尺
阴天层高于800英尺
小毛毛雨, 轻雾
从 23日的 1800点(UTC)
风速8节,风向东南
能見度: 9.7公里
阴天层高于600英尺
小毛毛雨, 轻雾
从 23日的 2300点(UTC)
风速8节,风向南转南东
能見度: 9.7公里
散云层高于800英尺
阴天层高于1000英尺
阵雨, 轻雾

TAF: KAHN 230140Z 2302/2324 08009KT P6SM OVC030 FM230300 07009KT P6SM SCT015 BKN025 FM230600 07008KT P6SM VCSH OVC008 FM231000 09008KT 6SM -DZ BR BKN004 OVC008 FM231800 14008KT 6SM -DZ BR OVC006 FM232300 15008KT 6SM SHRA BR SCT008 OVC010

超过4000个机场的气象观测和天气预报(METAR&TAF报告)。

可查询的气象台以黄色和红色小点在地图上表示。

将鼠标移到小点上方,可查看气象台名称。

然后点击查看天气观测和预报。

如需切换地图:点击带黑十字的绿色按钮放大地图;点击带横线的绿色按钮缩小地图;或者点击绿色箭头查看邻近地区的地图。


METAR-TAF: